sensor_id;sensor_type;location;lat;lon;timestamp;temperature;humidity
47576;DHT22;33304;52.456;13.328;2024-03-08T00:00:29;3.50;20.10
47576;DHT22;33304;52.456;13.328;2024-03-08T00:02:59;3.50;20.20
47576;DHT22;33304;52.456;13.328;2024-03-08T00:05:27;3.50;20.20
47576;DHT22;33304;52.456;13.328;2024-03-08T00:07:55;3.50;20.20
47576;DHT22;33304;52.456;13.328;2024-03-08T00:10:22;3.60;20.20
47576;DHT22;33304;52.456;13.328;2024-03-08T00:12:50;3.60;20.00
47576;DHT22;33304;52.456;13.328;2024-03-08T00:15:17;3.50;20.40
47576;DHT22;33304;52.456;13.328;2024-03-08T00:17:45;3.50;20.30
47576;DHT22;33304;52.456;13.328;2024-03-08T00:20:13;3.40;20.80
47576;DHT22;33304;52.456;13.328;2024-03-08T00:22:40;3.40;21.40
47576;DHT22;33304;52.456;13.328;2024-03-08T00:25:09;3.40;21.50
47576;DHT22;33304;52.456;13.328;2024-03-08T00:27:38;3.20;21.70
47576;DHT22;33304;52.456;13.328;2024-03-08T00:30:06;3.20;23.00
47576;DHT22;33304;52.456;13.328;2024-03-08T00:32:33;3.30;22.20
47576;DHT22;33304;52.456;13.328;2024-03-08T00:35:00;3.30;22.30
47576;DHT22;33304;52.456;13.328;2024-03-08T00:37:27;3.30;22.20
47576;DHT22;33304;52.456;13.328;2024-03-08T00:39:54;3.30;22.40
47576;DHT22;33304;52.456;13.328;2024-03-08T00:42:23;3.40;22.20
47576;DHT22;33304;52.456;13.328;2024-03-08T00:44:50;3.30;21.90
47576;DHT22;33304;52.456;13.328;2024-03-08T00:47:17;3.20;22.20
47576;DHT22;33304;52.456;13.328;2024-03-08T00:49:44;3.10;22.50
47576;DHT22;33304;52.456;13.328;2024-03-08T00:52:12;3.10;22.90
47576;DHT22;33304;52.456;13.328;2024-03-08T00:54:39;3.10;22.90
47576;DHT22;33304;52.456;13.328;2024-03-08T00:57:06;3.10;23.00
47576;DHT22;33304;52.456;13.328;2024-03-08T00:59:34;3.20;23.00
47576;DHT22;33304;52.456;13.328;2024-03-08T01:02:02;3.20;22.40
47576;DHT22;33304;52.456;13.328;2024-03-08T01:04:29;3.20;22.80
47576;DHT22;33304;52.456;13.328;2024-03-08T01:06:56;3.10;22.90
47576;DHT22;33304;52.456;13.328;2024-03-08T01:09:23;3.10;22.90
47576;DHT22;33304;52.456;13.328;2024-03-08T01:11:51;3.00;23.00
47576;DHT22;33304;52.456;13.328;2024-03-08T01:14:20;3.00;23.00
47576;DHT22;33304;52.456;13.328;2024-03-08T01:16:49;3.00;23.60
47576;DHT22;33304;52.456;13.328;2024-03-08T01:19:17;3.00;23.50
47576;DHT22;33304;52.456;13.328;2024-03-08T01:21:44;3.00;23.20
47576;DHT22;33304;52.456;13.328;2024-03-08T01:24:11;3.00;22.90
47576;DHT22;33304;52.456;13.328;2024-03-08T01:26:38;3.00;22.90
47576;DHT22;33304;52.456;13.328;2024-03-08T01:29:05;2.90;23.30
47576;DHT22;33304;52.456;13.328;2024-03-08T01:31:34;3.00;23.20
47576;DHT22;33304;52.456;13.328;2024-03-08T01:34:03;3.00;23.20
47576;DHT22;33304;52.456;13.328;2024-03-08T01:36:30;3.00;23.40
47576;DHT22;33304;52.456;13.328;2024-03-08T01:38:57;2.90;23.90
47576;DHT22;33304;52.456;13.328;2024-03-08T01:41:24;2.90;24.10
47576;DHT22;33304;52.456;13.328;2024-03-08T01:43:55;2.80;24.00
47576;DHT22;33304;52.456;13.328;2024-03-08T01:46:29;2.80;24.00
47576;DHT22;33304;52.456;13.328;2024-03-08T01:48:56;2.90;23.90
47576;DHT22;33304;52.456;13.328;2024-03-08T01:51:25;2.90;24.30
47576;DHT22;33304;52.456;13.328;2024-03-08T01:53:52;2.90;24.30
47576;DHT22;33304;52.456;13.328;2024-03-08T01:56:19;2.90;23.70
47576;DHT22;33304;52.456;13.328;2024-03-08T01:58:46;2.80;23.70
47576;DHT22;33304;52.456;13.328;2024-03-08T02:01:14;2.80;23.80
47576;DHT22;33304;52.456;13.328;2024-03-08T02:03:42;2.80;24.10
47576;DHT22;33304;52.456;13.328;2024-03-08T02:06:11;2.80;24.10
47576;DHT22;33304;52.456;13.328;2024-03-08T02:08:42;2.80;24.10
47576;DHT22;33304;52.456;13.328;2024-03-08T02:11:10;2.80;24.20
47576;DHT22;33304;52.456;13.328;2024-03-08T02:13:38;2.80;24.10
47576;DHT22;33304;52.456;13.328;2024-03-08T02:16:05;2.70;24.40
47576;DHT22;33304;52.456;13.328;2024-03-08T02:18:34;2.70;24.70
47576;DHT22;33304;52.456;13.328;2024-03-08T02:21:04;2.70;24.90
47576;DHT22;33304;52.456;13.328;2024-03-08T02:23:32;2.60;25.30
47576;DHT22;33304;52.456;13.328;2024-03-08T02:25:59;2.60;25.40
47576;DHT22;33304;52.456;13.328;2024-03-08T02:28:26;2.60;25.40
47576;DHT22;33304;52.456;13.328;2024-03-08T02:30:54;2.60;26.00
47576;DHT22;33304;52.456;13.328;2024-03-08T02:33:23;2.60;25.60
47576;DHT22;33304;52.456;13.328;2024-03-08T02:35:50;2.60;25.80
47576;DHT22;33304;52.456;13.328;2024-03-08T02:38:19;2.60;25.90
47576;DHT22;33304;52.456;13.328;2024-03-08T02:40:48;2.60;26.00
47576;DHT22;33304;52.456;13.328;2024-03-08T02:43:16;2.50;25.80
47576;DHT22;33304;52.456;13.328;2024-03-08T02:45:43;2.50;25.90
47576;DHT22;33304;52.456;13.328;2024-03-08T02:48:11;2.50;26.20
47576;DHT22;33304;52.456;13.328;2024-03-08T02:50:38;2.50;26.10
47576;DHT22;33304;52.456;13.328;2024-03-08T02:53:08;2.50;26.60
47576;DHT22;33304;52.456;13.328;2024-03-08T02:55:37;2.50;26.80
47576;DHT22;33304;52.456;13.328;2024-03-08T02:58:04;2.50;27.10
47576;DHT22;33304;52.456;13.328;2024-03-08T03:00:34;2.50;27.10
47576;DHT22;33304;52.456;13.328;2024-03-08T03:03:01;2.50;27.10
47576;DHT22;33304;52.456;13.328;2024-03-08T03:05:29;2.50;27.10
47576;DHT22;33304;52.456;13.328;2024-03-08T03:07:56;2.40;27.10
47576;DHT22;33304;52.456;13.328;2024-03-08T03:10:24;2.40;27.10
47576;DHT22;33304;52.456;13.328;2024-03-08T03:12:53;2.30;27.00
47576;DHT22;33304;52.456;13.328;2024-03-08T03:15:20;2.30;27.10
47576;DHT22;33304;52.456;13.328;2024-03-08T03:17:48;2.30;27.50
47576;DHT22;33304;52.456;13.328;2024-03-08T03:20:17;2.30;28.00
47576;DHT22;33304;52.456;13.328;2024-03-08T03:22:49;2.30;28.00
47576;DHT22;33304;52.456;13.328;2024-03-08T03:25:18;2.30;28.30
47576;DHT22;33304;52.456;13.328;2024-03-08T03:27:52;2.30;28.20
47576;DHT22;33304;52.456;13.328;2024-03-08T03:30:22;2.30;28.60
47576;DHT22;33304;52.456;13.328;2024-03-08T03:32:52;2.20;29.00
47576;DHT22;33304;52.456;13.328;2024-03-08T03:35:20;2.20;29.20
47576;DHT22;33304;52.456;13.328;2024-03-08T03:37:48;2.20;29.40
47576;DHT22;33304;52.456;13.328;2024-03-08T03:40:27;2.20;29.40
47576;DHT22;33304;52.456;13.328;2024-03-08T03:42:56;2.20;29.50
47576;DHT22;33304;52.456;13.328;2024-03-08T03:45:23;2.20;29.50
47576;DHT22;33304;52.456;13.328;2024-03-08T03:47:50;2.20;29.40
47576;DHT22;33304;52.456;13.328;2024-03-08T03:50:18;2.20;29.10
47576;DHT22;33304;52.456;13.328;2024-03-08T03:52:45;2.20;29.60
47576;DHT22;33304;52.456;13.328;2024-03-08T03:55:12;2.20;29.20
47576;DHT22;33304;52.456;13.328;2024-03-08T03:57:40;2.20;29.30
47576;DHT22;33304;52.456;13.328;2024-03-08T04:00:09;2.20;29.50
47576;DHT22;33304;52.456;13.328;2024-03-08T04:02:40;2.20;29.30
47576;DHT22;33304;52.456;13.328;2024-03-08T04:05:09;2.10;29.20
47576;DHT22;33304;52.456;13.328;2024-03-08T04:07:37;2.10;29.70
47576;DHT22;33304;52.456;13.328;2024-03-08T04:10:06;2.10;30.40
47576;DHT22;33304;52.456;13.328;2024-03-08T04:12:33;2.00;30.90
47576;DHT22;33304;52.456;13.328;2024-03-08T04:15:00;2.00;31.60
47576;DHT22;33304;52.456;13.328;2024-03-08T04:17:29;2.00;31.60
47576;DHT22;33304;52.456;13.328;2024-03-08T04:19:57;2.00;32.40
47576;DHT22;33304;52.456;13.328;2024-03-08T04:22:24;2.00;31.60
47576;DHT22;33304;52.456;13.328;2024-03-08T04:24:51;2.00;31.70
47576;DHT22;33304;52.456;13.328;2024-03-08T04:27:18;1.90;32.80
47576;DHT22;33304;52.456;13.328;2024-03-08T04:29:45;1.90;33.30
47576;DHT22;33304;52.456;13.328;2024-03-08T04:32:12;1.90;34.00
47576;DHT22;33304;52.456;13.328;2024-03-08T04:34:41;1.80;34.80
47576;DHT22;33304;52.456;13.328;2024-03-08T04:37:08;1.80;35.80
47576;DHT22;33304;52.456;13.328;2024-03-08T04:39:39;1.80;35.50
47576;DHT22;33304;52.456;13.328;2024-03-08T04:42:06;1.80;36.90
47576;DHT22;33304;52.456;13.328;2024-03-08T04:44:37;1.80;36.30
47576;DHT22;33304;52.456;13.328;2024-03-08T04:47:04;1.80;36.80
47576;DHT22;33304;52.456;13.328;2024-03-08T04:49:32;1.90;36.00
47576;DHT22;33304;52.456;13.328;2024-03-08T04:52:02;1.90;35.60
47576;DHT22;33304;52.456;13.328;2024-03-08T04:54:29;1.80;37.20
47576;DHT22;33304;52.456;13.328;2024-03-08T04:56:57;1.80;37.20
47576;DHT22;33304;52.456;13.328;2024-03-08T04:59:26;1.70;37.10
47576;DHT22;33304;52.456;13.328;2024-03-08T05:01:53;1.70;37.20
47576;DHT22;33304;52.456;13.328;2024-03-08T05:04:20;1.60;38.60
47576;DHT22;33304;52.456;13.328;2024-03-08T05:06:48;1.60;39.90
47576;DHT22;33304;52.456;13.328;2024-03-08T05:09:16;1.60;40.50
47576;DHT22;33304;52.456;13.328;2024-03-08T05:11:45;1.60;41.10
47576;DHT22;33304;52.456;13.328;2024-03-08T05:14:13;1.60;42.20
47576;DHT22;33304;52.456;13.328;2024-03-08T05:16:42;1.60;42.70
47576;DHT22;33304;52.456;13.328;2024-03-08T05:19:09;1.60;42.70
47576;DHT22;33304;52.456;13.328;2024-03-08T05:21:36;1.60;42.70
47576;DHT22;33304;52.456;13.328;2024-03-08T05:24:04;1.60;42.70
47576;DHT22;33304;52.456;13.328;2024-03-08T05:26:32;1.60;42.70
47576;DHT22;33304;52.456;13.328;2024-03-08T05:29:00;1.60;42.70
47576;DHT22;33304;52.456;13.328;2024-03-08T05:31:27;1.60;42.70
47576;DHT22;33304;52.456;13.328;2024-03-08T05:33:54;1.60;44.10
47576;DHT22;33304;52.456;13.328;2024-03-08T05:36:22;1.60;45.20
47576;DHT22;33304;52.456;13.328;2024-03-08T05:38:49;1.70;43.90
47576;DHT22;33304;52.456;13.328;2024-03-08T05:41:16;1.70;43.70
47576;DHT22;33304;52.456;13.328;2024-03-08T05:43:45;1.70;43.70
47576;DHT22;33304;52.456;13.328;2024-03-08T05:46:15;1.60;43.70
47576;DHT22;33304;52.456;13.328;2024-03-08T05:48:44;1.60;44.20
47576;DHT22;33304;52.456;13.328;2024-03-08T05:51:11;1.50;45.30
47576;DHT22;33304;52.456;13.328;2024-03-08T05:53:38;1.60;45.50
47576;DHT22;33304;52.456;13.328;2024-03-08T05:56:06;1.60;46.20
47576;DHT22;33304;52.456;13.328;2024-03-08T05:58:35;1.50;46.30
47576;DHT22;33304;52.456;13.328;2024-03-08T06:01:03;1.50;46.40
47576;DHT22;33304;52.456;13.328;2024-03-08T06:03:33;1.50;47.30
47576;DHT22;33304;52.456;13.328;2024-03-08T06:06:00;1.60;48.10
47576;DHT22;33304;52.456;13.328;2024-03-08T06:08:28;1.60;47.10
47576;DHT22;33304;52.456;13.328;2024-03-08T06:10:56;1.60;47.20
47576;DHT22;33304;52.456;13.328;2024-03-08T06:13:25;1.50;48.20
47576;DHT22;33304;52.456;13.328;2024-03-08T06:15:52;1.60;48.30
47576;DHT22;33304;52.456;13.328;2024-03-08T06:18:20;1.60;48.30
47576;DHT22;33304;52.456;13.328;2024-03-08T06:20:47;1.50;48.20
47576;DHT22;33304;52.456;13.328;2024-03-08T06:23:14;1.50;49.20
47576;DHT22;33304;52.456;13.328;2024-03-08T06:25:43;1.60;49.00
47576;DHT22;33304;52.456;13.328;2024-03-08T06:28:10;1.60;49.20
47576;DHT22;33304;52.456;13.328;2024-03-08T06:30:37;1.60;49.20
47576;DHT22;33304;52.456;13.328;2024-03-08T06:33:04;1.70;49.40
47576;DHT22;33304;52.456;13.328;2024-03-08T06:35:34;1.70;49.10
47576;DHT22;33304;52.456;13.328;2024-03-08T06:38:03;1.80;49.10
47576;DHT22;33304;52.456;13.328;2024-03-08T06:40:31;1.70;48.30
47576;DHT22;33304;52.456;13.328;2024-03-08T06:42:58;1.80;48.40
47576;DHT22;33304;52.456;13.328;2024-03-08T06:45:25;1.90;48.50
47576;DHT22;33304;52.456;13.328;2024-03-08T06:47:52;1.90;48.50
47576;DHT22;33304;52.456;13.328;2024-03-08T06:50:20;1.90;48.50
47576;DHT22;33304;52.456;13.328;2024-03-08T06:52:49;1.90;47.70
47576;DHT22;33304;52.456;13.328;2024-03-08T06:55:19;1.90;46.90
47576;DHT22;33304;52.456;13.328;2024-03-08T06:57:46;2.00;47.20
47576;DHT22;33304;52.456;13.328;2024-03-08T07:00:14;2.00;46.30
47576;DHT22;33304;52.456;13.328;2024-03-08T07:02:44;2.10;45.00
47576;DHT22;33304;52.456;13.328;2024-03-08T07:05:12;2.20;43.20
47576;DHT22;33304;52.456;13.328;2024-03-08T07:07:39;2.20;43.20
47576;DHT22;33304;52.456;13.328;2024-03-08T07:10:09;2.30;42.00
47576;DHT22;33304;52.456;13.328;2024-03-08T07:12:37;2.40;42.00
47576;DHT22;33304;52.456;13.328;2024-03-08T07:15:05;2.50;43.50
47576;DHT22;33304;52.456;13.328;2024-03-08T07:17:32;2.60;38.60
47576;DHT22;33304;52.456;13.328;2024-03-08T07:20:00;2.60;37.20
47576;DHT22;33304;52.456;13.328;2024-03-08T07:22:33;2.80;35.60
47576;DHT22;33304;52.456;13.328;2024-03-08T07:25:03;2.80;34.50
47576;DHT22;33304;52.456;13.328;2024-03-08T07:27:47;2.80;33.70
47576;DHT22;33304;52.456;13.328;2024-03-08T07:30:15;2.90;32.50
47576;DHT22;33304;52.456;13.328;2024-03-08T07:33:04;2.90;32.30
47576;DHT22;33304;52.456;13.328;2024-03-08T07:35:33;2.90;31.50
47576;DHT22;33304;52.456;13.328;2024-03-08T07:38:03;3.00;31.10
47576;DHT22;33304;52.456;13.328;2024-03-08T07:40:31;3.10;30.00
47576;DHT22;33304;52.456;13.328;2024-03-08T07:43:00;3.10;30.40
47576;DHT22;33304;52.456;13.328;2024-03-08T07:45:28;3.20;29.00
47576;DHT22;33304;52.456;13.328;2024-03-08T07:47:56;3.20;28.60
47576;DHT22;33304;52.456;13.328;2024-03-08T07:50:23;3.20;28.30
47576;DHT22;33304;52.456;13.328;2024-03-08T07:52:50;3.30;27.70
47576;DHT22;33304;52.456;13.328;2024-03-08T07:55:17;3.40;27.70
47576;DHT22;33304;52.456;13.328;2024-03-08T07:57:45;3.50;27.80
47576;DHT22;33304;52.456;13.328;2024-03-08T08:00:16;3.50;27.10
47576;DHT22;33304;52.456;13.328;2024-03-08T08:02:44;3.70;29.60
47576;DHT22;33304;52.456;13.328;2024-03-08T08:05:12;3.90;26.90
47576;DHT22;33304;52.456;13.328;2024-03-08T08:07:39;4.00;24.50
47576;DHT22;33304;52.456;13.328;2024-03-08T08:10:09;3.90;23.60
47576;DHT22;33304;52.456;13.328;2024-03-08T08:12:42;4.00;24.70
47576;DHT22;33304;52.456;13.328;2024-03-08T08:15:09;4.00;23.70
47576;DHT22;33304;52.456;13.328;2024-03-08T08:17:38;4.10;23.00
47576;DHT22;33304;52.456;13.328;2024-03-08T08:20:06;4.20;22.70
47576;DHT22;33304;52.456;13.328;2024-03-08T08:22:33;4.20;22.40
47576;DHT22;33304;52.456;13.328;2024-03-08T08:25:00;4.30;21.00
47576;DHT22;33304;52.456;13.328;2024-03-08T08:27:28;4.40;21.80
47576;DHT22;33304;52.456;13.328;2024-03-08T08:29:55;4.60;19.90
47576;DHT22;33304;52.456;13.328;2024-03-08T08:32:22;4.70;19.30
47576;DHT22;33304;52.456;13.328;2024-03-08T08:34:51;4.80;19.40
47576;DHT22;33304;52.456;13.328;2024-03-08T08:37:18;4.90;19.40
47576;DHT22;33304;52.456;13.328;2024-03-08T08:39:45;5.00;18.10
47576;DHT22;33304;52.456;13.328;2024-03-08T08:42:12;5.10;17.30
47576;DHT22;33304;52.456;13.328;2024-03-08T08:45:03;5.30;16.40
47576;DHT22;33304;52.456;13.328;2024-03-08T08:47:45;5.40;15.70
47576;DHT22;33304;52.456;13.328;2024-03-08T08:50:14;5.50;14.80
47576;DHT22;33304;52.456;13.328;2024-03-08T08:52:42;5.70;13.90
47576;DHT22;33304;52.456;13.328;2024-03-08T08:55:10;5.70;14.60
47576;DHT22;33304;52.456;13.328;2024-03-08T08:57:40;6.00;14.70
47576;DHT22;33304;52.456;13.328;2024-03-08T09:00:08;6.00;11.60
47576;DHT22;33304;52.456;13.328;2024-03-08T09:02:40;6.00;12.40
47576;DHT22;33304;52.456;13.328;2024-03-08T09:05:08;6.20;13.60
47576;DHT22;33304;52.456;13.328;2024-03-08T09:07:36;6.50;10.00
47576;DHT22;33304;52.456;13.328;2024-03-08T09:10:03;6.20;9.70
47576;DHT22;33304;52.456;13.328;2024-03-08T09:12:30;6.40;10.70
47576;DHT22;33304;52.456;13.328;2024-03-08T09:14:58;6.50;8.70
47576;DHT22;33304;52.456;13.328;2024-03-08T09:17:25;6.50;8.50
47576;DHT22;33304;52.456;13.328;2024-03-08T09:19:52;6.60;8.80
47576;DHT22;33304;52.456;13.328;2024-03-08T09:22:20;6.60;8.00
47576;DHT22;33304;52.456;13.328;2024-03-08T09:24:48;6.60;7.10
47576;DHT22;33304;52.456;13.328;2024-03-08T09:27:15;6.60;6.20
47576;DHT22;33304;52.456;13.328;2024-03-08T09:29:44;6.80;6.60
47576;DHT22;33304;52.456;13.328;2024-03-08T09:32:11;7.00;5.70
47576;DHT22;33304;52.456;13.328;2024-03-08T09:34:38;7.00;5.10
47576;DHT22;33304;52.456;13.328;2024-03-08T09:37:06;7.00;5.50
47576;DHT22;33304;52.456;13.328;2024-03-08T09:39:34;7.00;5.30
47576;DHT22;33304;52.456;13.328;2024-03-08T09:42:03;7.10;5.20
47576;DHT22;33304;52.456;13.328;2024-03-08T09:44:31;7.00;3.30
47576;DHT22;33304;52.456;13.328;2024-03-08T09:46:59;6.90;3.70
47576;DHT22;33304;52.456;13.328;2024-03-08T09:49:28;7.00;3.30
47576;DHT22;33304;52.456;13.328;2024-03-08T09:51:56;7.30;2.70
47576;DHT22;33304;52.456;13.328;2024-03-08T09:54:23;7.30;1.30
47576;DHT22;33304;52.456;13.328;2024-03-08T09:56:52;7.30;1.30
47576;DHT22;33304;52.456;13.328;2024-03-08T09:59:21;7.20;1.20
47576;DHT22;33304;52.456;13.328;2024-03-08T10:02:14;7.20;1.30
47576;DHT22;33304;52.456;13.328;2024-03-08T10:04:42;7.40;1.40
47576;DHT22;33304;52.456;13.328;2024-03-08T10:07:12;7.70;1.60
47576;DHT22;33304;52.456;13.328;2024-03-08T10:09:39;7.80;1.00
47576;DHT22;33304;52.456;13.328;2024-03-08T10:12:08;7.80;1.00
47576;DHT22;33304;52.456;13.328;2024-03-08T10:14:40;7.80;1.00
47576;DHT22;33304;52.456;13.328;2024-03-08T10:17:08;7.90;1.00
47576;DHT22;33304;52.456;13.328;2024-03-08T10:19:35;7.90;1.00
47576;DHT22;33304;52.456;13.328;2024-03-08T10:22:02;7.90;1.00
47576;DHT22;33304;52.456;13.328;2024-03-08T10:24:31;8.00;1.00
47576;DHT22;33304;52.456;13.328;2024-03-08T10:26:59;8.20;1.00
47576;DHT22;33304;52.456;13.328;2024-03-08T10:29:31;8.10;1.00
47576;DHT22;33304;52.456;13.328;2024-03-08T10:31:59;8.10;1.00
47576;DHT22;33304;52.456;13.328;2024-03-08T10:34:28;8.10;1.00
47576;DHT22;33304;52.456;13.328;2024-03-08T10:36:59;8.30;1.00
47576;DHT22;33304;52.456;13.328;2024-03-08T10:39:34;8.30;1.00
47576;DHT22;33304;52.456;13.328;2024-03-08T10:42:03;8.30;1.00
47576;DHT22;33304;52.456;13.328;2024-03-08T10:44:44;8.30;1.00
47576;DHT22;33304;52.456;13.328;2024-03-08T10:47:22;8.40;1.00
47576;DHT22;33304;52.456;13.328;2024-03-08T10:49:55;8.50;1.00
47576;DHT22;33304;52.456;13.328;2024-03-08T10:52:29;8.70;1.00
47576;DHT22;33304;52.456;13.328;2024-03-08T10:54:57;8.80;1.00
47576;DHT22;33304;52.456;13.328;2024-03-08T10:57:26;8.90;1.00
47576;DHT22;33304;52.456;13.328;2024-03-08T10:59:54;9.20;1.00
47576;DHT22;33304;52.456;13.328;2024-03-08T11:02:23;9.20;1.00
47576;DHT22;33304;52.456;13.328;2024-03-08T11:04:53;9.20;1.00
47576;DHT22;33304;52.456;13.328;2024-03-08T11:07:22;9.20;1.00
47576;DHT22;33304;52.456;13.328;2024-03-08T11:09:49;9.30;1.00
47576;DHT22;33304;52.456;13.328;2024-03-08T11:12:24;9.40;1.00
47576;DHT22;33304;52.456;13.328;2024-03-08T11:14:59;9.50;1.00
47576;DHT22;33304;52.456;13.328;2024-03-08T11:17:47;9.60;1.00
47576;DHT22;33304;52.456;13.328;2024-03-08T11:20:15;9.60;1.00
47576;DHT22;33304;52.456;13.328;2024-03-08T11:22:48;9.90;1.00
47576;DHT22;33304;52.456;13.328;2024-03-08T11:25:34;9.80;1.00
47576;DHT22;33304;52.456;13.328;2024-03-08T11:28:11;10.10;1.00
47576;DHT22;33304;52.456;13.328;2024-03-08T11:30:46;10.10;1.00
47576;DHT22;33304;52.456;13.328;2024-03-08T11:33:15;10.20;1.00
47576;DHT22;33304;52.456;13.328;2024-03-08T11:35:43;10.40;1.00
47576;DHT22;33304;52.456;13.328;2024-03-08T11:38:12;10.40;1.00
47576;DHT22;33304;52.456;13.328;2024-03-08T11:40:40;10.20;1.00
47576;DHT22;33304;52.456;13.328;2024-03-08T11:43:08;10.20;1.00
47576;DHT22;33304;52.456;13.328;2024-03-08T11:45:35;10.10;1.00
47576;DHT22;33304;52.456;13.328;2024-03-08T11:48:03;10.30;1.00
47576;DHT22;33304;52.456;13.328;2024-03-08T11:50:32;10.50;1.00
47576;DHT22;33304;52.456;13.328;2024-03-08T11:53:03;10.60;1.00
47576;DHT22;33304;52.456;13.328;2024-03-08T11:55:31;10.30;1.00
47576;DHT22;33304;52.456;13.328;2024-03-08T11:58:02;10.40;1.00
47576;DHT22;33304;52.456;13.328;2024-03-08T12:00:30;10.50;1.00
47576;DHT22;33304;52.456;13.328;2024-03-08T12:03:02;10.50;1.00
47576;DHT22;33304;52.456;13.328;2024-03-08T12:05:29;10.30;1.00
47576;DHT22;33304;52.456;13.328;2024-03-08T12:07:58;10.40;1.00
47576;DHT22;33304;52.456;13.328;2024-03-08T12:10:26;10.50;1.00
47576;DHT22;33304;52.456;13.328;2024-03-08T12:12:55;10.50;1.00
47576;DHT22;33304;52.456;13.328;2024-03-08T12:15:25;10.60;1.00
47576;DHT22;33304;52.456;13.328;2024-03-08T12:17:54;10.60;1.00
47576;DHT22;33304;52.456;13.328;2024-03-08T12:20:23;10.90;1.00
47576;DHT22;33304;52.456;13.328;2024-03-08T12:22:51;11.20;1.00
47576;DHT22;33304;52.456;13.328;2024-03-08T12:25:21;11.30;1.00
47576;DHT22;33304;52.456;13.328;2024-03-08T12:27:48;11.30;1.00
47576;DHT22;33304;52.456;13.328;2024-03-08T12:30:20;11.40;1.00
47576;DHT22;33304;52.456;13.328;2024-03-08T12:32:58;11.10;1.00
47576;DHT22;33304;52.456;13.328;2024-03-08T12:35:27;11.00;1.00
47576;DHT22;33304;52.456;13.328;2024-03-08T12:37:55;11.50;1.00
47576;DHT22;33304;52.456;13.328;2024-03-08T12:40:28;11.90;1.00
47576;DHT22;33304;52.456;13.328;2024-03-08T12:42:55;11.80;1.00
47576;DHT22;33304;52.456;13.328;2024-03-08T12:45:23;11.90;1.00
47576;DHT22;33304;52.456;13.328;2024-03-08T12:47:50;12.00;1.00
47576;DHT22;33304;52.456;13.328;2024-03-08T12:50:19;11.80;1.00
47576;DHT22;33304;52.456;13.328;2024-03-08T12:52:46;11.90;1.00
47576;DHT22;33304;52.456;13.328;2024-03-08T12:55:13;12.00;1.00
47576;DHT22;33304;52.456;13.328;2024-03-08T12:57:44;11.90;1.00
47576;DHT22;33304;52.456;13.328;2024-03-08T13:00:13;11.90;1.00
47576;DHT22;33304;52.456;13.328;2024-03-08T13:02:45;12.10;1.00
47576;DHT22;33304;52.456;13.328;2024-03-08T13:05:12;12.20;1.00
47576;DHT22;33304;52.456;13.328;2024-03-08T13:07:40;12.00;1.00
47576;DHT22;33304;52.456;13.328;2024-03-08T13:10:12;11.90;1.00
47576;DHT22;33304;52.456;13.328;2024-03-08T13:12:42;12.60;1.00
47576;DHT22;33304;52.456;13.328;2024-03-08T13:15:10;12.40;1.00
47576;DHT22;33304;52.456;13.328;2024-03-08T13:17:41;12.30;1.00
47576;DHT22;33304;52.456;13.328;2024-03-08T13:20:11;13.10;1.00
47576;DHT22;33304;52.456;13.328;2024-03-08T13:22:42;14.20;1.00
47576;DHT22;33304;52.456;13.328;2024-03-08T13:25:09;15.00;1.00
47576;DHT22;33304;52.456;13.328;2024-03-08T13:27:39;15.70;1.00
47576;DHT22;33304;52.456;13.328;2024-03-08T13:30:09;16.00;1.00
47576;DHT22;33304;52.456;13.328;2024-03-08T13:32:39;16.00;1.00
47576;DHT22;33304;52.456;13.328;2024-03-08T13:35:09;16.60;1.00
47576;DHT22;33304;52.456;13.328;2024-03-08T13:37:39;16.50;1.00
47576;DHT22;33304;52.456;13.328;2024-03-08T13:40:07;15.60;1.00
47576;DHT22;33304;52.456;13.328;2024-03-08T13:42:37;15.60;1.00
47576;DHT22;33304;52.456;13.328;2024-03-08T13:45:06;17.00;1.00
47576;DHT22;33304;52.456;13.328;2024-03-08T13:47:36;17.10;1.00
47576;DHT22;33304;52.456;13.328;2024-03-08T13:50:06;16.60;1.00
47576;DHT22;33304;52.456;13.328;2024-03-08T13:52:37;16.80;1.00
47576;DHT22;33304;52.456;13.328;2024-03-08T13:55:05;16.90;1.00
47576;DHT22;33304;52.456;13.328;2024-03-08T13:57:33;16.40;1.00
47576;DHT22;33304;52.456;13.328;2024-03-08T14:00:00;16.90;1.00
47576;DHT22;33304;52.456;13.328;2024-03-08T14:02:27;17.10;1.00
47576;DHT22;33304;52.456;13.328;2024-03-08T14:04:58;16.80;1.00
47576;DHT22;33304;52.456;13.328;2024-03-08T14:07:28;17.10;1.00
47576;DHT22;33304;52.456;13.328;2024-03-08T14:09:55;16.40;1.00
47576;DHT22;33304;52.456;13.328;2024-03-08T14:12:22;16.90;1.00
47576;DHT22;33304;52.456;13.328;2024-03-08T14:14:52;16.50;1.00
47576;DHT22;33304;52.456;13.328;2024-03-08T14:17:19;16.10;1.00
47576;DHT22;33304;52.456;13.328;2024-03-08T14:19:46;16.90;1.00
47576;DHT22;33304;52.456;13.328;2024-03-08T14:22:14;17.00;1.00
47576;DHT22;33304;52.456;13.328;2024-03-08T14:24:41;17.20;1.00
47576;DHT22;33304;52.456;13.328;2024-03-08T14:27:09;17.80;1.00
47576;DHT22;33304;52.456;13.328;2024-03-08T14:29:38;17.20;1.00
47576;DHT22;33304;52.456;13.328;2024-03-08T14:32:05;17.20;1.00
47576;DHT22;33304;52.456;13.328;2024-03-08T14:34:33;16.60;1.00
47576;DHT22;33304;52.456;13.328;2024-03-08T14:37:00;17.40;1.00
47576;DHT22;33304;52.456;13.328;2024-03-08T14:39:32;18.70;1.00
47576;DHT22;33304;52.456;13.328;2024-03-08T14:41:59;18.10;1.00
47576;DHT22;33304;52.456;13.328;2024-03-08T14:44:27;17.80;1.00
47576;DHT22;33304;52.456;13.328;2024-03-08T14:46:55;17.20;1.00
47576;DHT22;33304;52.456;13.328;2024-03-08T14:49:23;16.80;1.00
47576;DHT22;33304;52.456;13.328;2024-03-08T14:51:52;17.20;1.00
47576;DHT22;33304;52.456;13.328;2024-03-08T14:54:19;17.30;1.00
47576;DHT22;33304;52.456;13.328;2024-03-08T14:56:50;17.30;1.00
47576;DHT22;33304;52.456;13.328;2024-03-08T14:59:17;16.90;1.00
47576;DHT22;33304;52.456;13.328;2024-03-08T15:01:45;16.10;1.00
47576;DHT22;33304;52.456;13.328;2024-03-08T15:04:12;15.50;1.00
47576;DHT22;33304;52.456;13.328;2024-03-08T15:06:40;15.50;1.00
47576;DHT22;33304;52.456;13.328;2024-03-08T15:09:08;16.30;1.00
47576;DHT22;33304;52.456;13.328;2024-03-08T15:11:45;16.30;1.00
47576;DHT22;33304;52.456;13.328;2024-03-08T15:14:13;16.40;1.00
47576;DHT22;33304;52.456;13.328;2024-03-08T15:16:40;16.60;1.00
47576;DHT22;33304;52.456;13.328;2024-03-08T15:19:09;16.40;1.00
47576;DHT22;33304;52.456;13.328;2024-03-08T15:21:38;15.90;1.00
47576;DHT22;33304;52.456;13.328;2024-03-08T15:24:05;15.30;1.00
47576;DHT22;33304;52.456;13.328;2024-03-08T15:26:36;14.90;1.00
47576;DHT22;33304;52.456;13.328;2024-03-08T15:29:03;15.00;1.00
47576;DHT22;33304;52.456;13.328;2024-03-08T15:31:32;14.60;1.00
47576;DHT22;33304;52.456;13.328;2024-03-08T15:34:00;14.10;1.00
47576;DHT22;33304;52.456;13.328;2024-03-08T15:36:32;13.90;1.00
47576;DHT22;33304;52.456;13.328;2024-03-08T15:39:00;14.60;1.00
47576;DHT22;33304;52.456;13.328;2024-03-08T15:41:27;14.50;1.00